Time;durP1;ratioP1;P1;durP2;ratioP2;P2;SDS_P1;SDS_P2;PMS_P1;PMS_P2;Temp;Humidity;BMP_temperature;BMP_pressure;BME280_temperature;BME280_humidity;BME280_pressure;Samples;Min_cycle;Max_cycle;Signal;HPM_P1;HPM_P2
2023/05/05 03:02:10;;;;;;;;;;;19.00;39.80;;;;;;5465989;23;45519;-60
2023/05/05 03:04:41;;;;;;;;;;;18.90;40.00;;;;;;4925139;28;46040;-57
2023/05/05 03:07:20;;;;;;;;;;;18.90;40.00;;;;;;4902508;28;45284;-60
2023/05/05 03:09:49;;;;;;;;;;;18.90;40.10;;;;;;4908948;28;46933;-59
2023/05/05 03:12:20;;;;;;;;;;;18.90;40.10;;;;;;4874555;28;45303;-58
2023/05/05 03:14:46;;;;;;;;;;;18.90;40.20;;;;;;4880097;28;46301;-59
2023/05/05 03:17:12;;;;;;;;;;;18.90;40.20;;;;;;4861965;28;44975;-58
2023/05/05 03:19:39;;;;;;;;;;;18.90;40.30;;;;;;4866625;28;47776;-59
2023/05/05 03:22:05;;;;;;;;;;;18.90;40.20;;;;;;4885740;28;45192;-58
2023/05/05 03:24:30;;;;;;;;;;;18.90;40.30;;;;;;4866701;28;45646;-58
2023/05/05 03:26:56;;;;;;;;;;;18.90;40.40;;;;;;4871949;28;45403;-57
2023/05/05 03:29:22;;;;;;;;;;;18.90;40.30;;;;;;4919430;28;45962;-59
2023/05/05 03:31:47;;;;;;;;;;;18.90;40.40;;;;;;4872744;28;45852;-59
2023/05/05 03:34:13;;;;;;;;;;;18.80;40.30;;;;;;4919019;28;45624;-60
2023/05/05 03:36:38;;;;;;;;;;;18.80;40.40;;;;;;4911748;28;45134;-61
2023/05/05 03:39:04;;;;;;;;;;;18.90;40.40;;;;;;4893933;28;48191;-60
2023/05/05 03:41:29;;;;;;;;;;;18.90;40.40;;;;;;4889477;28;46182;-60
2023/05/05 03:43:55;;;;;;;;;;;18.80;40.30;;;;;;4901999;28;45547;-59
2023/05/05 03:46:20;;;;;;;;;;;18.90;40.40;;;;;;4909328;28;45198;-61
2023/05/05 03:48:47;;;;;;;;;;;18.90;40.40;;;;;;4896897;28;46131;-60
2023/05/05 03:51:12;;;;;;;;;;;18.80;40.40;;;;;;4910950;28;45179;-58
2023/05/05 03:53:38;;;;;;;;;;;18.80;40.40;;;;;;4914294;28;44725;-60
2023/05/05 03:56:04;;;;;;;;;;;18.80;40.40;;;;;;4889813;28;45496;-61
2023/05/05 03:58:29;;;;;;;;;;;18.80;40.30;;;;;;4898719;28;47033;-59
2023/05/05 04:00:55;;;;;;;;;;;18.80;40.30;;;;;;4901243;28;45822;-61
2023/05/05 04:03:20;;;;;;;;;;;18.80;40.30;;;;;;4905389;28;44752;-58
2023/05/05 04:05:46;;;;;;;;;;;18.80;40.30;;;;;;4907322;28;45563;-59
2023/05/05 04:08:11;;;;;;;;;;;18.70;40.30;;;;;;4907305;28;45185;-59
2023/05/05 04:10:37;;;;;;;;;;;18.80;40.30;;;;;;4904481;28;45705;-59
2023/05/05 04:13:03;;;;;;;;;;;18.80;40.40;;;;;;4878745;28;45395;-60
2023/05/05 04:15:28;;;;;;;;;;;18.80;40.40;;;;;;4892005;28;44971;-60
2023/05/05 04:17:54;;;;;;;;;;;18.70;40.30;;;;;;4890483;28;45553;-60
2023/05/05 04:20:20;;;;;;;;;;;18.80;40.30;;;;;;4893087;28;45752;-61
2023/05/05 04:22:45;;;;;;;;;;;18.80;40.20;;;;;;4915698;28;45365;-62
2023/05/05 04:25:11;;;;;;;;;;;18.80;40.20;;;;;;4901322;28;45205;-60
2023/05/05 04:27:36;;;;;;;;;;;18.70;40.10;;;;;;4918667;28;46370;-63
2023/05/05 04:30:03;;;;;;;;;;;18.70;40.20;;;;;;4899591;28;45232;-63
2023/05/05 04:32:28;;;;;;;;;;;18.70;40.10;;;;;;4876163;28;46123;-60
2023/05/05 04:34:54;;;;;;;;;;;18.70;40.00;;;;;;4919684;28;45246;-61
2023/05/05 04:37:20;;;;;;;;;;;18.70;40.00;;;;;;4911682;28;47886;-60
2023/05/05 04:39:45;;;;;;;;;;;18.70;39.90;;;;;;4905183;28;45356;-61
2023/05/05 04:42:11;;;;;;;;;;;18.70;39.90;;;;;;4878430;28;44831;-60
2023/05/05 04:44:37;;;;;;;;;;;18.70;40.00;;;;;;4900526;28;45434;-59
2023/05/05 04:47:02;;;;;;;;;;;18.70;39.90;;;;;;4907282;28;46021;-61
2023/05/05 04:49:28;;;;;;;;;;;18.70;39.90;;;;;;4894170;28;45599;-59
2023/05/05 04:51:54;;;;;;;;;;;18.70;39.80;;;;;;4914065;28;45408;-60
2023/05/05 04:54:20;;;;;;;;;;;18.70;39.90;;;;;;4920982;28;45670;-61
2023/05/05 04:56:45;;;;;;;;;;;18.70;39.90;;;;;;4914802;28;45482;-60
2023/05/05 04:59:11;;;;;;;;;;;18.60;40.00;;;;;;4915915;28;45410;-59
2023/05/05 05:01:36;;;;;;;;;;;18.60;40.00;;;;;;4891072;28;45213;-60
2023/05/05 05:04:03;;;;;;;;;;;18.60;40.20;;;;;;4924492;28;45776;-59
2023/05/05 05:06:29;;;;;;;;;;;18.60;40.20;;;;;;4900392;28;45921;-59
2023/05/05 05:08:54;;;;;;;;;;;18.60;40.20;;;;;;4905310;28;45712;-61
2023/05/05 05:11:20;;;;;;;;;;;18.60;40.20;;;;;;4900428;28;45377;-60
2023/05/05 05:13:46;;;;;;;;;;;18.60;40.20;;;;;;4918824;28;45229;-57
2023/05/05 05:16:12;;;;;;;;;;;18.60;40.10;;;;;;4916766;28;45431;-60
2023/05/05 05:18:37;;;;;;;;;;;18.70;40.00;;;;;;4901707;28;45032;-58
2023/05/05 05:21:03;;;;;;;;;;;18.80;39.50;;;;;;4900147;28;44798;-60
2023/05/05 05:23:28;;;;;;;;;;;18.90;39.30;;;;;;4919895;28;46013;-57
2023/05/05 05:25:54;;;;;;;;;;;18.80;40.00;;;;;;4879779;28;45268;-60
2023/05/05 05:28:20;;;;;;;;;;;18.70;39.60;;;;;;4921273;28;45326;-61
2023/05/05 05:30:45;;;;;;;;;;;18.60;39.70;;;;;;4904767;28;45449;-59
2023/05/05 05:33:11;;;;;;;;;;;18.60;39.90;;;;;;4917210;28;45737;-62
2023/05/05 05:35:36;;;;;;;;;;;18.50;40.20;;;;;;4912653;28;46363;-59
2023/05/05 05:38:02;;;;;;;;;;;18.50;40.20;;;;;;4891624;28;45177;-59
2023/05/05 05:40:27;;;;;;;;;;;18.50;40.50;;;;;;4907344;28;45348;-62
2023/05/05 05:42:53;;;;;;;;;;;18.50;40.60;;;;;;4897781;28;45521;-60
2023/05/05 05:45:18;;;;;;;;;;;18.50;40.70;;;;;;4892626;28;46157;-62
2023/05/05 05:47:44;;;;;;;;;;;18.50;40.90;;;;;;4878090;28;45113;-58
2023/05/05 05:50:10;;;;;;;;;;;18.50;41.00;;;;;;4899747;28;45716;-59
2023/05/05 05:52:35;;;;;;;3.40;2.30;;;18.50;41.30;;;;;;4899445;28;45440;-61
2023/05/05 05:55:01;;;;;;;5.90;2.30;;;18.50;41.00;;;;;;4917094;28;44962;-61
2023/05/05 05:57:27;;;;;;;5.32;2.30;;;18.50;41.00;;;;;;4879085;28;45271;-60
2023/05/05 05:59:53;;;;;;;5.68;2.13;;;18.60;40.90;;;;;;4899048;28;45475;-61
2023/05/05 06:02:19;;;;;;;5.90;2.08;;;18.60;41.00;;;;;;4907447;28;46110;-61
2023/05/05 06:04:46;;;;;;;3.75;2.38;;;18.60;40.90;;;;;;4901654;28;45015;-61
2023/05/05 06:07:11;;;;;;;6.85;2.40;;;18.60;40.90;;;;;;4893691;28;45445;-63
2023/05/05 06:09:37;;;;;;;3.70;2.38;;;18.60;40.80;;;;;;4917251;28;44731;-61
2023/05/05 06:12:03;;;;;;;4.75;2.30;;;18.60;40.90;;;;;;4896304;28;45734;-62
2023/05/05 06:14:28;;;;;;;3.97;2.28;;;18.60;40.90;;;;;;4900193;28;45564;-59
2023/05/05 06:16:54;;;;;;;4.63;2.28;;;18.70;40.90;;;;;;4899304;28;45168;-61
2023/05/05 06:19:20;;;;;;;3.08;2.10;;;18.70;41.00;;;;;;4907262;28;45314;-61
2023/05/05 06:21:46;;;;;;;3.88;2.40;;;18.70;41.10;;;;;;4894221;28;45662;-60
2023/05/05 06:24:11;;;;;;;4.15;2.17;;;18.70;40.70;;;;;;4910382;28;45893;-64
2023/05/05 06:26:37;;;;;;;4.22;2.30;;;18.70;40.50;;;;;;4878424;28;44945;-61
2023/05/05 06:29:02;;;;;;;4.22;2.20;;;18.80;40.30;;;;;;4922140;28;45639;-59
2023/05/05 06:31:28;;;;;;;5.85;2.20;;;18.80;40.20;;;;;;4890962;28;45145;-61
2023/05/05 06:33:53;;;;;;;;;;;18.80;40.30;;;;;;4884089;28;45137;-60
2023/05/05 06:36:19;;;;;;;4.20;2.20;;;18.90;40.00;;;;;;4914675;28;45433;-61
2023/05/05 06:38:45;;;;;;;4.60;2.00;;;18.90;40.20;;;;;;4899985;28;45145;-61
2023/05/05 06:41:10;;;;;;;4.30;2.17;;;18.90;40.10;;;;;;4908150;28;45868;-61
2023/05/05 06:43:36;;;;;;;3.30;2.17;;;18.90;40.10;;;;;;4902847;28;45070;-62
2023/05/05 06:46:01;;;;;;;8.30;3.07;;;19.00;39.90;;;;;;4901540;28;45332;-62
2023/05/05 06:48:27;;;;;;;4.60;2.83;;;19.30;39.70;;;;;;4892037;28;45332;-61
2023/05/05 06:50:52;;;;;;;6.53;3.00;;;19.40;39.50;;;;;;4900497;28;45684;-61
2023/05/05 06:53:18;;;;;;;5.30;2.70;;;19.60;39.30;;;;;;4898356;28;46648;-59
2023/05/05 06:55:44;;;;;;;6.00;2.87;;;19.60;39.10;;;;;;4894153;28;45282;-60
2023/05/05 06:58:10;;;;;;;5.13;2.80;;;19.70;39.00;;;;;;4899131;28;45366;-59
2023/05/05 07:00:37;;;;;;;3.70;2.95;;;19.80;39.00;;;;;;4903347;28;45513;-60
2023/05/05 07:03:03;;;;;;;5.95;3.10;;;19.90;38.90;;;;;;4894862;28;45290;-63
2023/05/05 07:05:29;;;;;;;4.95;3.10;;;20.00;38.80;;;;;;4908028;28;45460;-60
2023/05/05 07:07:55;;;;;;;4.18;2.67;;;20.20;38.70;;;;;;4899818;28;45740;-61
2023/05/05 07:10:22;;;;;;;4.10;2.85;;;20.20;38.60;;;;;;4894037;28;45639;-61
2023/05/05 07:12:48;;;;;;;5.53;3.08;;;20.30;38.50;;;;;;4887916;28;46990;-60
2023/05/05 07:15:14;;;;;;;4.77;3.03;;;20.40;38.40;;;;;;4893845;28;45358;-62
2023/05/05 07:17:39;;;;;;;5.25;3.05;;;20.40;38.50;;;;;;4894048;28;45382;-61
2023/05/05 07:20:06;;;;;;;6.90;3.40;;;20.50;38.50;;;;;;4911685;28;45476;-63
2023/05/05 07:22:32;;;;;;;5.00;3.00;;;20.50;38.50;;;;;;4865333;28;45574;-59
2023/05/05 07:24:57;;;;;;;5.03;3.05;;;20.60;38.50;;;;;;4870192;28;45380;-60
2023/05/05 07:27:23;;;;;;;5.78;3.28;;;20.60;38.60;;;;;;4895993;28;44810;-62
2023/05/05 07:29:49;;;;;;;4.47;3.10;;;20.70;38.60;;;;;;4897137;28;45611;-61
2023/05/05 07:32:14;;;;;;;6.32;3.00;;;20.70;38.60;;;;;;4890062;28;45286;-59
2023/05/05 07:34:40;;;;;;;4.95;3.17;;;20.80;38.70;;;;;;4914438;28;45046;-60
2023/05/05 07:37:06;;;;;;;6.63;3.22;;;20.90;38.50;;;;;;4909691;28;45772;-60
2023/05/05 07:39:31;;;;;;;6.00;3.00;;;21.00;38.40;;;;;;4913072;28;44750;-62
2023/05/05 07:41:57;;;;;;;4.37;2.97;;;21.10;38.40;;;;;;4894080;28;46826;-61
2023/05/05 07:44:23;;;;;;;6.82;2.97;;;21.10;38.30;;;;;;4889984;28;45484;-61
2023/05/05 07:46:48;;;;;;;5.07;2.90;;;21.10;38.30;;;;;;4905813;28;45091;-60
2023/05/05 07:49:14;;;;;;;8.05;3.40;;;21.20;38.40;;;;;;4912620;28;45481;-60
2023/05/05 07:51:39;;;;;;;5.95;2.70;;;21.20;38.40;;;;;;4900464;28;45072;-60
2023/05/05 07:54:05;;;;;;;4.70;2.95;;;21.30;38.50;;;;;;4915677;28;45523;-60
2023/05/05 07:56:30;;;;;;;7.97;3.05;;;21.30;38.50;;;;;;4886915;28;45775;-59
2023/05/05 07:58:56;;;;;;;4.97;2.90;;;21.40;38.50;;;;;;4895553;28;45058;-60
2023/05/05 08:01:22;;;;;;;9.07;3.20;;;21.40;38.50;;;;;;4905537;28;44976;-58
2023/05/05 08:03:48;;;;;;;7.20;3.00;;;21.50;38.60;;;;;;4898875;28;45456;-62
2023/05/05 08:06:20;;;;;;;5.47;3.00;;;21.50;38.70;;;;;;4907811;28;45499;-60
2023/05/05 08:08:50;;;;;;;5.43;3.20;;;21.50;38.70;;;;;;4909011;28;45233;-60
2023/05/05 08:11:16;;;;;;;5.35;3.60;;;21.60;38.80;;;;;;4880910;28;46131;-59
2023/05/05 08:13:44;;;;;;;7.57;3.35;;;21.60;38.90;;;;;;4917385;28;45574;-59
2023/05/05 08:16:12;;;;;;;6.70;3.20;;;21.70;39.00;;;;;;4905089;28;45514;-62
2023/05/05 08:18:38;;;;;;;6.20;3.10;;;21.70;39.10;;;;;;4895573;28;45495;-58
2023/05/05 08:21:04;;;;;;;5.10;2.93;;;21.70;39.10;;;;;;4889637;28;47006;-61
2023/05/05 08:23:30;;;;;;;7.37;3.83;;;21.80;39.10;;;;;;4913494;28;45173;-62
2023/05/05 08:25:56;;;;;;;5.50;3.80;;;21.80;39.50;;;;;;4893610;28;45036;-61
2023/05/05 08:28:22;;;;;;;6.07;3.55;;;21.80;39.60;;;;;;4896252;28;45538;-62
2023/05/05 08:30:48;;;;;;;4.93;3.50;;;21.90;39.60;;;;;;4887529;28;46196;-60
2023/05/05 08:33:14;;;;;;;4.95;3.58;;;21.90;39.60;;;;;;4860272;28;45755;-59
2023/05/05 08:35:40;;;;;;;7.20;3.40;;;21.90;39.60;;;;;;4909884;28;45406;-59
2023/05/05 08:38:06;;;;;;;4.65;3.40;;;21.90;39.60;;;;;;4897219;28;45484;-58
2023/05/05 08:40:35;;;;;;;4.80;3.70;;;22.00;39.70;;;;;;4902765;28;46255;-59
2023/05/05 08:43:01;;;;;;;6.60;4.00;;;22.00;40.00;;;;;;4895396;28;45430;-60
2023/05/05 08:45:27;;;;;;;4.90;3.40;;;22.10;40.10;;;;;;4889173;28;45658;-59
2023/05/05 08:47:59;;;;;;;7.43;3.92;;;22.10;40.10;;;;;;4892384;28;46019;-59
2023/05/05 08:50:26;;;;;;;5.28;4.28;;;22.20;40.30;;;;;;4892376;28;45599;-60
2023/05/05 08:53:05;;;;;;;5.47;3.75;;;22.20;40.50;;;;;;4883183;28;48168;-56
2023/05/05 08:55:33;;;;;;;5.22;3.70;;;22.20;40.40;;;;;;4888038;28;44923;-61
2023/05/05 08:58:05;;;;;;;6.23;3.80;;;22.20;40.60;;;;;;4908488;28;45381;-59
2023/05/05 09:00:30;;;;;;;6.47;3.87;;;22.30;40.70;;;;;;4893520;28;46140;-60
2023/05/05 09:02:57;;;;;;;8.43;4.10;;;22.40;40.80;;;;;;4875257;28;45591;-59
2023/05/05 09:05:23;;;;;;;7.57;4.90;;;22.40;40.90;;;;;;4892128;28;45006;-56
2023/05/05 09:07:49;;;;;;;7.78;4.65;;;22.40;41.00;;;;;;4906103;28;45889;-59
2023/05/05 09:10:15;;;;;;;6.07;4.00;;;22.50;41.10;;;;;;4887948;28;46082;-58
2023/05/05 09:12:40;;;;;;;5.70;4.00;;;22.50;41.10;;;;;;4914345;28;45115;-58
2023/05/05 09:15:15;;;;;;;4.75;3.92;;;22.50;41.10;;;;;;4915768;28;45278;-59
2023/05/05 09:17:41;;;;;;;6.55;4.60;;;22.60;41.10;;;;;;4909926;28;45460;-56
2023/05/05 09:20:10;;;;;;;9.90;4.60;;;22.60;41.30;;;;;;4913245;28;45113;-59
2023/05/05 09:22:37;;;;;;;12.50;4.88;;;22.60;41.20;;;;;;4898923;28;45130;-59
2023/05/05 09:25:06;;;;;;;10.27;4.38;;;22.60;41.20;;;;;;4895565;28;45615;-61
2023/05/05 09:27:40;;;;;;;5.45;3.78;;;22.70;41.20;;;;;;4897806;28;46064;-59
2023/05/05 09:30:06;;;;;;;8.00;4.10;;;22.70;41.10;;;;;;4895486;28;46039;-60
2023/05/05 09:32:48;;;;;;;7.85;4.22;;;22.80;41.10;;;;;;4908948;28;45296;-58
2023/05/05 09:35:14;;;;;;;6.68;4.10;;;22.80;41.30;;;;;;4879745;28;45480;-58
2023/05/05 09:37:40;;;;;;;7.65;4.55;;;22.80;41.30;;;;;;4896894;28;46810;-60
2023/05/05 09:40:08;;;;;;;7.00;4.10;;;22.80;41.30;;;;;;4892066;28;46345;-60
2023/05/05 09:42:37;;;;;;;6.40;4.03;;;22.80;41.30;;;;;;4888127;28;45816;-57
2023/05/05 09:45:10;;;;;;;8.43;4.40;;;22.90;41.40;;;;;;4895909;28;45858;-63
2023/05/05 09:47:36;;;;;;;6.50;4.10;;;23.00;41.50;;;;;;4906288;28;45224;-59
2023/05/05 09:50:05;;;;;;;9.63;4.30;;;23.00;41.40;;;;;;4914418;28;46302;-61
2023/05/05 09:52:31;;;;;;;7.90;4.47;;;23.00;41.40;;;;;;4915866;28;45159;-58
2023/05/05 09:54:57;;;;;;;6.03;3.90;;;23.00;41.50;;;;;;4902980;28;45536;-59
2023/05/05 09:57:31;;;;;;;7.53;4.40;;;23.10;41.60;;;;;;4894287;28;45301;-59
2023/05/05 09:59:58;;;;;;;10.00;4.20;;;23.10;41.70;;;;;;4917084;28;46400;-57
2023/05/05 10:02:37;;;;;;;8.30;4.22;;;23.10;41.70;;;;;;4887080;28;45737;-60
2023/05/05 10:05:06;;;;;;;6.53;4.30;;;23.20;41.90;;;;;;4896835;28;45105;-63
2023/05/05 10:07:32;;;;;;;8.25;4.13;;;23.20;42.50;;;;;;4879331;28;45813;-60
2023/05/05 10:09:58;;;;;;;6.17;4.07;;;23.20;41.80;;;;;;4898144;28;45398;-60
2023/05/05 10:12:24;;;;;;;5.67;3.97;;;23.30;41.80;;;;;;4906824;28;45564;-59
2023/05/05 10:14:51;;;;;;;6.72;4.07;;;23.30;41.90;;;;;;4899756;28;45641;-58
2023/05/05 10:17:17;;;;;;;7.95;4.53;;;23.30;41.80;;;;;;4859256;28;45571;-58
2023/05/05 10:19:42;;;;;;;6.22;4.32;;;23.30;42.00;;;;;;4881220;28;46357;-56
2023/05/05 10:22:08;;;;;;;4.90;3.83;;;23.30;41.90;;;;;;4875146;28;45664;-58
2023/05/05 10:24:38;;;;;;;7.05;4.18;;;23.40;41.90;;;;;;4888340;28;45280;-57
2023/05/05 10:27:10;;;;;;;6.78;4.10;;;23.40;41.90;;;;;;4911283;28;45758;-59
2023/05/05 10:29:38;;;;;;;5.90;3.67;;;23.50;41.90;;;;;;4901294;28;46110;-58
2023/05/05 10:32:08;;;;;;;7.67;4.23;;;23.50;41.90;;;;;;4872970;28;45686;-56
2023/05/05 10:34:40;;;;;;;4.30;3.70;;;23.50;41.90;;;;;;4896219;28;45626;-55
2023/05/05 10:37:05;;;;;;;6.18;4.10;;;23.50;41.90;;;;;;4894766;28;45127;-61
2023/05/05 10:39:31;;;;;;;5.30;4.07;;;23.50;42.00;;;;;;4896722;28;46182;-58
2023/05/05 10:42:00;;;;;;;6.97;4.10;;;23.60;42.10;;;;;;4876524;28;45262;-55
2023/05/05 10:44:28;;;;;;;6.47;4.35;;;23.60;42.10;;;;;;4885150;28;45421;-58
2023/05/05 10:46:53;;;;;;;5.72;4.00;;;23.60;42.10;;;;;;4888152;28;45335;-59
2023/05/05 10:49:41;;;;;;;7.50;4.20;;;23.60;42.20;;;;;;4898830;28;45979;-59
2023/05/05 10:52:36;;;;;;;5.50;4.00;;;23.60;42.20;;;;;;4906566;28;45789;-60
2023/05/05 10:55:17;;;;;;;4.97;3.75;;;23.60;42.20;;;;;;4891817;28;45296;-57
2023/05/05 10:57:44;;;;;;;6.37;3.93;;;23.60;42.30;;;;;;4908306;28;45821;-59
2023/05/05 11:00:30;;;;;;;5.50;3.85;;;23.70;42.40;;;;;;4878741;28;46129;-61
2023/05/05 11:03:22;;;;;;;5.87;3.50;;;23.70;42.40;;;;;;4892473;28;45395;-60
2023/05/05 11:06:03;;;;;;;6.65;3.58;;;23.70;42.40;;;;;;4884591;28;45134;-59
2023/05/05 11:08:33;;;;;;;6.40;3.87;;;23.70;42.70;;;;;;4899499;28;45625;-57
2023/05/05 11:10:58;;;;;;;4.35;3.60;;;23.70;43.00;;;;;;4876377;28;46815;-58
2023/05/05 11:13:24;;;;;;;5.77;3.80;;;23.80;43.10;;;;;;4896332;28;45611;-59
2023/05/05 11:15:54;;;;;;;4.70;3.50;;;23.80;43.10;;;;;;4907836;28;45629;-57
2023/05/05 11:18:34;;;;;;;4.10;3.58;;;23.90;43.20;;;;;;4898389;28;44730;-58
2023/05/05 11:21:02;;;;;;;4.25;3.35;;;23.90;43.30;;;;;;4890061;28;46735;-58
2023/05/05 11:23:28;;;;;;;5.97;3.45;;;23.90;43.30;;;;;;4895866;28;45309;-58
2023/05/05 11:25:54;;;;;;;5.72;3.60;;;23.90;43.50;;;;;;4894391;28;45463;-57
2023/05/05 11:28:24;;;;;;;5.47;4.05;;;23.90;43.50;;;;;;4913681;28;45396;-59
2023/05/05 11:31:05;;;;;;;4.68;3.90;;;24.00;43.50;;;;;;4904600;28;47034;-60
2023/05/05 11:33:35;;;;;;;6.00;4.22;;;24.00;43.50;;;;;;4909169;28;45406;-60
2023/05/05 11:36:01;;;;;;;6.57;4.30;;;24.00;43.60;;;;;;4903235;28;45255;-59
2023/05/05 11:39:04;;;;;;;4.65;3.88;;;24.00;43.60;;;;;;4898892;28;45042;-59
2023/05/05 11:41:33;;;;;;;4.28;3.88;;;24.00;43.70;;;;;;4904609;28;46213;-60
2023/05/05 11:44:08;;;;;;;4.75;4.00;;;24.00;43.60;;;;;;4911419;28;45196;-59
2023/05/05 11:46:34;;;;;;;4.43;3.60;;;24.00;43.60;;;;;;4901495;28;45319;-58
2023/05/05 11:48:59;;;;;;;4.40;3.50;;;24.00;43.70;;;;;;4912663;28;45599;-60
2023/05/05 11:51:25;;;;;;;4.50;3.65;;;24.00;43.70;;;;;;4906031;28;45167;-59
2023/05/05 11:53:51;;;;;;;5.53;3.60;;;24.00;43.80;;;;;;4896882;28;45126;-60
2023/05/05 11:56:19;;;;;;;5.40;3.38;;;24.00;43.80;;;;;;4890403;28;45588;-60
2023/05/05 11:58:45;;;;;;;3.77;3.30;;;24.00;43.90;;;;;;4895533;28;45372;-59
2023/05/05 12:01:12;;;;;;;5.93;3.25;;;24.00;43.90;;;;;;4864065;28;47035;-60
2023/05/05 12:03:37;;;;;;;4.22;3.30;;;24.00;43.90;;;;;;4886696;28;45328;-58
2023/05/05 12:06:04;;;;;;;4.43;3.20;;;24.00;43.90;;;;;;4871756;28;45652;-59
2023/05/05 12:08:36;;;;;;;4.68;3.70;;;24.00;43.90;;;;;;4893858;28;45711;-58
2023/05/05 12:11:09;;;;;;;7.45;3.42;;;24.00;43.90;;;;;;4885565;28;46123;-60
2023/05/05 12:13:35;;;;;;;5.60;3.50;;;24.00;44.00;;;;;;4908416;28;45949;-58
2023/05/05 12:16:12;;;;;;;6.73;3.67;;;24.00;44.00;;;;;;4869051;28;45643;-60
2023/05/05 12:18:38;;;;;;;7.32;3.45;;;24.00;44.00;;;;;;4894776;28;45567;-59
2023/05/05 12:21:17;;;;;;;4.82;3.05;;;24.00;43.90;;;;;;4905397;28;46230;-60
2023/05/05 12:23:43;;;;;;;4.10;3.35;;;24.00;43.90;;;;;;4908921;28;45870;-60
2023/05/05 12:26:28;;;;;;;5.20;3.33;;;24.00;44.00;;;;;;4890727;28;45046;-60
2023/05/05 12:28:57;;;;;;;7.00;3.20;;;24.10;44.00;;;;;;4905066;28;45907;-59
2023/05/05 12:31:36;;;;;;;4.40;3.07;;;24.10;44.00;;;;;;4884944;28;45570;-56
2023/05/05 12:34:02;;;;;;;4.40;3.10;;;24.10;43.90;;;;;;4913072;28;45650;-56
2023/05/05 12:36:28;;;;;;;5.47;2.87;;;24.00;44.00;;;;;;4873843;28;45180;-59
2023/05/05 12:38:54;;;;;;;2.55;2.35;;;24.00;44.00;;;;;;4878118;28;46175;-60
2023/05/05 12:41:21;;;;;;;6.27;2.90;;;24.10;44.00;;;;;;4874041;28;45134;-58
2023/05/05 12:43:46;;;;;;;4.60;2.85;;;24.10;44.00;;;;;;4896937;28;45081;-57
2023/05/05 12:46:12;;;;;;;5.03;2.93;;;24.10;44.10;;;;;;4872352;28;45409;-62
2023/05/05 12:48:40;;;;;;;4.47;2.90;;;24.10;44.10;;;;;;4897692;28;45594;-59
2023/05/05 12:51:19;;;;;;;5.30;2.85;;;24.10;44.10;;;;;;4901454;28;46774;-60
2023/05/05 12:53:46;;;;;;;4.80;2.88;;;24.10;44.20;;;;;;4895988;28;45447;-59
2023/05/05 12:56:34;;;;;;;7.07;2.90;;;24.10;44.20;;;;;;4890714;28;45313;-57
2023/05/05 12:59:08;;;;;;;4.70;2.83;;;24.10;44.40;;;;;;4910844;28;45309;-60
2023/05/05 13:01:54;;;;;;;3.42;2.60;;;24.10;44.40;;;;;;4883206;28;46319;-59
2023/05/05 13:04:21;;;;;;;3.47;2.97;;;24.10;44.50;;;;;;4900502;28;45446;-60
2023/05/05 13:06:48;;;;;;;4.75;3.20;;;24.10;44.50;;;;;;4908636;28;44852;-58
2023/05/05 13:09:29;;;;;;;6.38;2.80;;;24.10;44.50;;;;;;4882839;28;45737;-58
2023/05/05 13:11:55;;;;;;;4.55;2.60;;;24.10;44.30;;;;;;4909447;28;45933;-58
2023/05/05 13:14:20;;;;;;;5.03;2.47;;;24.10;44.20;;;;;;4896638;28;45217;-59
2023/05/05 13:16:46;;;;;;;4.53;2.60;;;24.10;44.00;;;;;;4888739;28;46944;-60
2023/05/05 13:19:11;;;;;;;4.30;2.40;;;24.10;43.80;;;;;;4896856;28;45358;-58
2023/05/05 13:21:37;;;;;;;3.17;2.10;;;24.10;44.20;;;;;;4912018;28;46155;-60
2023/05/05 13:24:03;;;;;;;3.70;2.30;;;24.10;43.30;;;;;;4897137;28;45368;-59
2023/05/05 13:26:29;;;;;;;4.65;2.30;;;24.10;43.20;;;;;;4898475;28;45314;-59
2023/05/05 13:28:54;;;;;;;3.83;1.92;;;24.10;43.20;;;;;;4893292;28;46528;-60
2023/05/05 13:31:20;;;;;;;5.55;2.22;;;24.10;43.10;;;;;;4883720;28;47071;-59
2023/05/05 13:33:45;;;;;;;4.32;1.90;;;24.10;43.10;;;;;;4893320;28;45870;-61
2023/05/05 13:36:11;;;;;;;5.13;2.50;;;24.10;43.20;;;;;;4906176;28;45425;-60
2023/05/05 13:38:37;;;;;;;3.83;2.03;;;24.10;43.30;;;;;;4893055;28;45269;-61
2023/05/05 13:41:02;;;;;;;3.63;2.28;;;24.10;43.20;;;;;;4889005;28;46590;-60
2023/05/05 13:43:28;;;;;;;4.50;2.28;;;24.10;43.10;;;;;;4893048;28;45370;-60
2023/05/05 13:45:55;;;;;;;2.75;1.60;;;24.10;42.70;;;;;;4900714;28;45157;-57
2023/05/05 13:48:21;;;;;;;2.60;1.80;;;24.10;42.50;;;;;;4908405;28;45485;-56
2023/05/05 13:50:46;;;;;;;2.40;1.60;;;24.00;42.40;;;;;;4890353;28;46578;-57
2023/05/05 13:53:12;;;;;;;2.23;1.73;;;24.00;42.20;;;;;;4893683;28;45603;-61
2023/05/05 13:55:38;;;;;;;3.72;1.70;;;24.00;42.20;;;;;;4904378;28;45308;-59
2023/05/05 13:58:04;;;;;;;2.67;1.75;;;24.00;41.90;;;;;;4893342;28;45645;-61
2023/05/05 14:00:30;;;;;;;2.90;1.80;;;24.00;41.80;;;;;;4902311;28;46942;-61
2023/05/05 14:02:56;;;;;;;2.60;1.85;;;24.00;41.80;;;;;;4909089;28;45565;-58
2023/05/05 14:05:22;;;;;;;2.33;1.40;;;24.00;41.70;;;;;;4889806;28;45449;-58
2023/05/05 14:07:47;;;;;;;2.60;1.55;;;24.00;41.60;;;;;;4893457;28;45398;-59
2023/05/05 14:10:13;;;;;;;3.95;1.70;;;23.90;41.60;;;;;;4890896;28;48336;-60
2023/05/05 14:12:39;;;;;;;3.58;1.65;;;23.90;41.50;;;;;;4907995;28;45522;-60
2023/05/05 14:15:05;;;;;;;2.63;1.80;;;23.90;41.60;;;;;;4893578;28;45471;-60
2023/05/05 14:17:31;;;;;;;3.20;1.58;;;23.90;41.70;;;;;;4873808;28;46001;-58
2023/05/05 14:19:57;;;;;;;2.22;1.40;;;23.90;41.80;;;;;;4864046;28;45889;-60
2023/05/05 14:22:23;;;;;;;3.37;1.70;;;23.90;42.00;;;;;;4906591;28;45418;-57
2023/05/05 14:24:48;;;;;;;3.77;1.57;;;23.90;42.80;;;;;;4910596;28;45367;-58
2023/05/05 14:27:14;;;;;;;1.70;1.60;;;23.90;42.30;;;;;;4908104;28;45328;-58
2023/05/05 14:29:39;;;;;;;2.97;1.63;;;23.80;42.50;;;;;;4912737;28;45535;-58
2023/05/05 14:32:05;;;;;;;2.13;1.50;;;23.80;42.80;;;;;;4903402;28;45468;-58
2023/05/05 14:34:30;;;;;;;1.73;1.50;;;23.80;43.10;;;;;;4908659;28;45279;-60
2023/05/05 14:36:56;;;;;;;3.47;1.67;;;23.80;44.00;;;;;;4905426;28;45319;-58
2023/05/05 14:39:22;;;;;;;2.83;1.60;;;23.80;44.60;;;;;;4911525;28;45851;-59
2023/05/05 14:41:48;;;;;;;2.33;1.63;;;23.80;45.30;;;;;;4889768;28;45815;-59
2023/05/05 14:44:13;;;;;;;3.65;1.70;;;23.80;45.70;;;;;;4895050;28;45796;-58
2023/05/05 14:46:39;;;;;;;3.95;1.80;;;23.80;45.70;;;;;;4869440;28;45902;-61
2023/05/05 14:49:05;;;;;;;2.10;1.60;;;23.70;45.30;;;;;;4911573;28;45963;-59
2023/05/05 14:51:31;;;;;;;3.05;1.73;;;23.70;45.40;;;;;;4890004;28;45220;-58
2023/05/05 14:53:56;;;;;;;3.87;1.63;;;23.70;45.30;;;;;;4910576;28;45226;-61
2023/05/05 14:56:23;;;;;;;2.90;1.50;;;23.70;46.00;;;;;;4874949;28;45882;-59
2023/05/05 14:58:49;;;;;;;3.00;1.48;;;23.70;45.40;;;;;;4910684;28;46126;-60
2023/05/05 15:01:15;;;;;;;2.60;1.70;;;23.70;45.40;;;;;;4870724;28;46007;-60
2023/05/05 15:03:41;;;;;;;2.17;1.63;;;23.70;45.30;;;;;;4892215;28;45538;-59
2023/05/05 15:06:07;;;;;;;4.73;1.87;;;23.70;45.30;;;;;;4889675;28;44942;-60
2023/05/05 15:08:32;;;;;;;1.95;1.70;;;23.70;45.30;;;;;;4907002;28;45778;-60
2023/05/05 15:10:58;;;;;;;2.53;1.70;;;23.70;45.30;;;;;;4889892;28;45387;-58
2023/05/05 15:13:23;;;;;;;3.97;1.63;;;23.70;45.30;;;;;;4877875;28;45553;-59
2023/05/05 15:15:50;;;;;;;1.98;1.40;;;23.70;45.30;;;;;;4886593;28;45605;-61
2023/05/05 15:18:16;;;;;;;2.05;1.55;;;23.60;45.30;;;;;;4900843;28;45866;-60
2023/05/05 15:20:41;;;;;;;2.35;1.45;;;23.70;45.30;;;;;;4861940;28;45382;-60
2023/05/05 15:23:07;;;;;;;2.63;1.70;;;23.70;45.20;;;;;;4909536;28;45498;-60
2023/05/05 15:25:33;;;;;;;2.25;1.77;;;23.70;45.20;;;;;;4887994;28;45878;-61
2023/05/05 15:27:59;;;;;;;3.22;1.70;;;23.70;45.20;;;;;;4909416;28;45970;-58
2023/05/05 15:30:25;;;;;;;2.05;1.48;;;23.60;45.20;;;;;;4885878;28;45129;-60
2023/05/05 15:32:52;;;;;;;2.83;1.50;;;23.60;45.20;;;;;;4891304;28;45219;-59
2023/05/05 15:35:18;;;;;;;2.20;1.60;;;23.60;45.20;;;;;;4870834;28;45695;-60
2023/05/05 15:37:43;;;;;;;3.03;1.60;;;23.60;45.20;;;;;;4877763;28;46764;-61
2023/05/05 15:40:09;;;;;;;2.83;1.60;;;23.60;45.20;;;;;;4892513;28;45439;-61
2023/05/05 15:42:35;;;;;;;2.22;1.67;;;23.60;45.20;;;;;;4909238;28;45557;-57
2023/05/05 15:45:01;;;;;;;2.50;1.63;;;23.60;45.20;;;;;;4894354;28;44704;-59
2023/05/05 15:47:26;;;;;;;2.75;1.50;;;23.60;45.10;;;;;;4865028;28;45773;-61
2023/05/05 15:49:52;;;;;;;2.40;1.50;;;23.60;45.10;;;;;;4890680;28;45113;-58
2023/05/05 15:52:17;;;;;;;1.93;1.40;;;23.60;45.10;;;;;;4900967;28;45583;-60
2023/05/05 15:54:43;;;;;;;1.77;1.27;;;23.50;45.10;;;;;;4893628;28;45276;-59
2023/05/05 15:57:09;;;;;;;1.90;1.50;;;23.60;45.10;;;;;;4889087;28;45761;-58
2023/05/05 15:59:34;;;;;;;2.08;1.42;;;23.50;45.00;;;;;;4892631;28;45602;-60
2023/05/05 16:02:00;;;;;;;1.73;1.33;;;23.50;45.10;;;;;;4867276;28;46455;-59
2023/05/05 16:04:25;;;;;;;2.55;1.42;;;23.50;45.00;;;;;;4891493;28;45406;-58
2023/05/05 16:06:52;;;;;;;2.67;1.63;;;23.50;45.10;;;;;;4888572;28;46177;-58